createdAt,value
2019-05-12T00:00:20.292Z,99.90
2019-05-12T00:02:48.861Z,99.90
2019-05-12T00:05:18.520Z,99.90
2019-05-12T00:07:48.821Z,99.90
2019-05-12T00:10:19.180Z,99.90
2019-05-12T00:12:48.514Z,99.90
2019-05-12T00:15:19.311Z,99.90
2019-05-12T00:17:48.344Z,99.90
2019-05-12T00:20:18.076Z,99.90
2019-05-12T00:22:49.018Z,99.90
2019-05-12T00:25:18.409Z,99.90
2019-05-12T00:27:48.723Z,99.90
2019-05-12T00:30:35.468Z,99.90
2019-05-12T00:33:05.012Z,99.90
2019-05-12T00:35:33.604Z,99.90
2019-05-12T00:38:02.075Z,99.90
2019-05-12T00:40:30.535Z,99.90
2019-05-12T00:42:59.084Z,99.90
2019-05-12T00:45:29.192Z,99.90
2019-05-12T00:47:58.520Z,99.90
2019-05-12T00:50:29.008Z,99.90
2019-05-12T00:52:58.015Z,99.90
2019-05-12T00:55:28.943Z,99.90
2019-05-12T00:57:58.098Z,99.90
2019-05-12T01:00:29.278Z,99.90
2019-05-12T01:02:58.109Z,99.90
2019-05-12T01:05:29.382Z,99.90
2019-05-12T01:07:58.372Z,99.90
2019-05-12T01:10:28.685Z,99.90
2019-05-12T01:12:58.411Z,99.90
2019-05-12T01:15:28.807Z,99.90
2019-05-12T01:17:58.590Z,99.90
2019-05-12T01:20:28.282Z,99.90
2019-05-12T01:22:58.013Z,99.90
2019-05-12T01:25:28.902Z,99.90
2019-05-12T01:27:58.856Z,99.90
2019-05-12T01:30:28.514Z,99.90
2019-05-12T01:32:58.090Z,99.90
2019-05-12T01:35:28.229Z,99.90
2019-05-12T01:37:58.723Z,99.90
2019-05-12T01:40:28.731Z,99.90
2019-05-12T01:42:58.265Z,99.90
2019-05-12T01:45:28.693Z,99.90
2019-05-12T01:47:59.170Z,99.90
2019-05-12T01:50:28.580Z,99.90
2019-05-12T01:52:58.820Z,99.90
2019-05-12T01:55:28.254Z,99.90
2019-05-12T01:57:57.818Z,99.90
2019-05-12T02:00:28.295Z,99.90
2019-05-12T02:02:58.393Z,99.90
2019-05-12T02:05:28.060Z,99.90
2019-05-12T02:07:58.812Z,99.90
2019-05-12T02:10:28.592Z,99.90
2019-05-12T02:12:59.300Z,99.90
2019-05-12T02:15:28.103Z,99.90
2019-05-12T02:17:58.943Z,99.90
2019-05-12T02:20:28.882Z,99.90
2019-05-12T02:22:58.317Z,99.90
2019-05-12T02:25:28.643Z,99.90
2019-05-12T02:27:58.427Z,99.90
2019-05-12T02:30:30.373Z,99.90
2019-05-12T02:32:59.215Z,99.90
2019-05-12T02:35:27.797Z,99.90
2019-05-12T02:37:56.415Z,99.90
2019-05-12T02:40:25.440Z,99.90
2019-05-12T02:42:55.160Z,99.90
2019-05-12T02:45:25.410Z,99.90
2019-05-12T02:47:54.645Z,99.90
2019-05-12T02:50:35.953Z,99.90
2019-05-12T02:53:05.917Z,99.90
2019-05-12T02:55:35.741Z,99.90
2019-05-12T02:58:06.234Z,99.90
2019-05-12T03:00:36.204Z,99.90
2019-05-12T03:03:07.598Z,99.90
2019-05-12T03:05:38.155Z,99.90
2019-05-12T03:08:06.785Z,99.90
2019-05-12T03:10:36.588Z,99.90
2019-05-12T03:13:05.545Z,99.90
2019-05-12T03:15:36.777Z,99.90
2019-05-12T03:18:06.587Z,99.90
2019-05-12T03:20:35.950Z,99.90
2019-05-12T03:23:06.339Z,99.90
2019-05-12T03:25:36.192Z,99.90
2019-05-12T03:28:08.783Z,99.90
2019-05-12T03:30:39.256Z,99.90
2019-05-12T03:33:09.424Z,99.90
2019-05-12T03:35:43.019Z,99.90
2019-05-12T03:38:06.848Z,99.90
2019-05-12T03:40:38.523Z,99.90
2019-05-12T03:43:05.855Z,99.90
2019-05-12T03:45:35.881Z,99.90
2019-05-12T03:48:06.200Z,99.90
2019-05-12T03:50:36.174Z,99.90
2019-05-12T03:53:10.338Z,99.90
2019-05-12T03:55:41.891Z,99.90
2019-05-12T03:58:06.733Z,99.90
2019-05-12T04:00:36.322Z,99.90
2019-05-12T04:03:05.849Z,99.90
2019-05-12T04:05:35.634Z,99.90
2019-05-12T04:08:06.812Z,99.90
2019-05-12T04:10:36.494Z,99.90
2019-05-12T04:13:05.681Z,99.90
2019-05-12T04:15:35.310Z,99.90
2019-05-12T04:18:05.616Z,99.90
2019-05-12T04:20:35.937Z,99.90
2019-05-12T04:23:06.239Z,99.90
2019-05-12T04:25:51.108Z,99.90
2019-05-12T04:28:05.775Z,99.90
2019-05-12T04:30:35.441Z,99.90
2019-05-12T04:33:05.917Z,99.90
2019-05-12T04:35:35.374Z,99.90
2019-05-12T04:38:05.054Z,99.90
2019-05-12T04:40:35.913Z,99.90
2019-05-12T04:43:06.374Z,99.90
2019-05-12T04:45:35.468Z,99.90
2019-05-12T04:48:05.717Z,99.90
2019-05-12T04:50:35.745Z,99.90
2019-05-12T04:53:06.274Z,99.90
2019-05-12T04:55:35.936Z,99.90
2019-05-12T04:58:05.282Z,99.90
2019-05-12T05:00:35.342Z,99.90
2019-05-12T05:03:05.397Z,99.90
2019-05-12T05:05:35.769Z,99.90
2019-05-12T05:08:05.037Z,99.90
2019-05-12T05:10:34.601Z,99.90
2019-05-12T05:13:05.142Z,99.90
2019-05-12T05:15:35.124Z,99.90
2019-05-12T05:18:06.377Z,99.90
2019-05-12T05:20:34.750Z,99.90
2019-05-12T05:23:04.286Z,99.90
2019-05-12T05:25:34.923Z,99.90
2019-05-12T05:28:04.575Z,99.90
2019-05-12T05:30:34.139Z,99.90
2019-05-12T05:33:04.547Z,99.90
2019-05-12T05:35:39.887Z,99.90
2019-05-12T05:38:05.172Z,99.90
2019-05-12T05:40:35.705Z,99.90
2019-05-12T05:43:12.750Z,99.90
2019-05-12T05:45:35.008Z,99.90
2019-05-12T05:48:09.491Z,99.90
2019-05-12T05:50:34.547Z,99.90
2019-05-12T05:53:03.842Z,99.90
2019-05-12T05:55:34.394Z,99.90
2019-05-12T05:58:08.604Z,99.90
2019-05-12T06:00:38.987Z,99.90
2019-05-12T06:03:05.578Z,99.90
2019-05-12T06:05:38.227Z,99.90
2019-05-12T06:08:09.539Z,99.90
2019-05-12T06:10:39.857Z,99.90
2019-05-12T06:13:05.738Z,99.90
2019-05-12T06:15:38.905Z,99.90
2019-05-12T06:18:04.799Z,99.90
2019-05-12T06:20:37.769Z,99.90
2019-05-12T06:23:04.596Z,99.90
2019-05-12T06:25:46.387Z,99.90
2019-05-12T06:28:08.520Z,99.90
2019-05-12T06:30:43.913Z,99.90
2019-05-12T06:33:06.187Z,99.90
2019-05-12T06:35:37.420Z,99.90
2019-05-12T06:38:05.372Z,99.90
2019-05-12T06:40:40.478Z,99.90
2019-05-12T06:43:04.681Z,99.90
2019-05-12T06:45:39.636Z,99.90
2019-05-12T06:48:04.335Z,99.90
2019-05-12T06:50:38.955Z,99.90
2019-05-12T06:53:05.004Z,99.90
2019-05-12T06:55:39.069Z,99.90
2019-05-12T06:58:05.168Z,99.90
2019-05-12T07:00:35.319Z,99.90
2019-05-12T07:03:05.167Z,99.90
2019-05-12T07:05:38.441Z,99.90
2019-05-12T07:08:05.304Z,99.90
2019-05-12T07:10:43.377Z,99.90
2019-05-12T07:13:05.922Z,99.90
2019-05-12T07:15:39.823Z,99.90
2019-05-12T07:18:13.704Z,99.90
2019-05-12T07:20:43.627Z,99.90
2019-05-12T07:23:14.163Z,99.90
2019-05-12T07:25:44.475Z,99.90
2019-05-12T07:28:14.496Z,99.90
2019-05-12T07:30:44.085Z,99.90
2019-05-12T07:33:14.636Z,99.90
2019-05-12T07:35:44.483Z,99.90
2019-05-12T07:38:21.142Z,99.90
2019-05-12T07:40:46.728Z,99.90
2019-05-12T07:43:20.583Z,99.90
2019-05-12T07:45:53.869Z,99.90
2019-05-12T07:48:19.468Z,99.90
2019-05-12T07:50:50.349Z,99.90
2019-05-12T07:53:18.127Z,99.90
2019-05-12T07:55:49.352Z,99.90
2019-05-12T07:58:19.025Z,99.90
2019-05-12T08:00:46.982Z,99.90
2019-05-12T08:03:20.985Z,99.90
2019-05-12T08:05:45.913Z,99.90
2019-05-12T08:08:14.672Z,99.90
2019-05-12T08:10:44.380Z,99.90
2019-05-12T08:13:14.790Z,99.90
2019-05-12T08:15:45.718Z,99.90
2019-05-12T08:18:14.098Z,99.90
2019-05-12T08:20:43.513Z,99.90
2019-05-12T08:23:14.129Z,99.90
2019-05-12T08:25:43.653Z,99.90
2019-05-12T08:28:18.856Z,99.90
2019-05-12T08:30:47.421Z,99.90
2019-05-12T08:33:14.601Z,99.90
2019-05-12T08:35:44.004Z,99.90
2019-05-12T08:38:14.460Z,99.90
2019-05-12T08:40:48.842Z,99.90
2019-05-12T08:43:14.888Z,99.90
2019-05-12T08:45:44.404Z,99.90
2019-05-12T08:48:17.086Z,99.90
2019-05-12T08:50:46.035Z,99.90
2019-05-12T08:53:20.571Z,99.90
2019-05-12T08:55:43.808Z,99.90
2019-05-12T08:58:26.533Z,99.90
2019-05-12T09:00:46.623Z,99.90
2019-05-12T09:03:14.125Z,99.90
2019-05-12T09:05:44.530Z,99.90
2019-05-12T09:08:14.030Z,99.90
2019-05-12T09:10:45.005Z,99.90
2019-05-12T09:13:14.416Z,99.90
2019-05-12T09:15:43.767Z,99.90
2019-05-12T09:18:14.493Z,99.90
2019-05-12T09:20:48.963Z,99.90
2019-05-12T09:23:13.625Z,99.90
2019-05-12T09:25:45.344Z,99.90
2019-05-12T09:28:13.760Z,99.90
2019-05-12T09:30:45.909Z,99.90
2019-05-12T09:33:14.110Z,99.90
2019-05-12T09:35:43.842Z,99.90
2019-05-12T09:38:21.225Z,99.90
2019-05-12T09:40:43.881Z,99.90
2019-05-12T09:43:13.714Z,99.90
2019-05-12T09:45:52.014Z,99.90
2019-05-12T09:48:14.137Z,99.90
2019-05-12T09:50:46.314Z,99.90
2019-05-12T09:53:14.408Z,99.90
2019-05-12T09:55:43.907Z,99.90
2019-05-12T09:58:14.040Z,99.90
2019-05-12T10:00:44.011Z,99.90
2019-05-12T10:03:13.912Z,99.90
2019-05-12T10:05:44.195Z,99.90
2019-05-12T10:08:13.841Z,99.90
2019-05-12T10:10:47.001Z,99.90
2019-05-12T10:13:14.859Z,99.90
2019-05-12T10:15:43.335Z,99.90
2019-05-12T10:18:14.148Z,99.90
2019-05-12T10:20:44.017Z,99.90
2019-05-12T10:23:16.501Z,99.90
2019-05-12T10:25:44.539Z,99.90
2019-05-12T10:28:15.537Z,99.90
2019-05-12T10:30:47.314Z,99.90
2019-05-12T10:33:13.947Z,99.90
2019-05-12T10:35:43.874Z,99.90
2019-05-12T10:38:13.755Z,99.90
2019-05-12T10:40:44.391Z,99.90
2019-05-12T10:43:12.614Z,99.90
2019-05-12T10:45:41.090Z,99.90
2019-05-12T10:48:09.619Z,99.90
2019-05-12T10:50:38.168Z,99.90
2019-05-12T10:53:09.879Z,99.90
2019-05-12T10:55:36.896Z,99.90
2019-05-12T10:58:07.159Z,99.90
2019-05-12T11:00:36.095Z,97.90
2019-05-12T11:03:10.866Z,96.40
2019-05-12T11:05:35.091Z,96.10
2019-05-12T11:08:10.927Z,94.60
2019-05-12T11:10:34.048Z,93.90
2019-05-12T11:13:08.673Z,93.00
2019-05-12T11:15:34.227Z,89.90
2019-05-12T11:18:04.808Z,88.10
2019-05-12T11:20:35.218Z,88.00
2019-05-12T11:23:03.858Z,85.80
2019-05-12T11:25:34.039Z,77.40
2019-05-12T11:28:03.717Z,72.20
2019-05-12T11:30:34.693Z,68.60
2019-05-12T11:33:04.440Z,66.80
2019-05-12T11:35:33.985Z,70.10
2019-05-12T11:38:04.568Z,64.30
2019-05-12T11:40:34.831Z,58.90
2019-05-12T11:43:04.440Z,56.80
2019-05-12T11:45:33.865Z,53.80
2019-05-12T11:48:08.296Z,51.20
2019-05-12T11:50:33.223Z,50.30
2019-05-12T11:53:03.983Z,49.30
2019-05-12T11:55:34.204Z,48.00
2019-05-12T11:58:06.716Z,46.70
2019-05-12T12:00:37.435Z,45.90
2019-05-12T12:03:12.807Z,44.60
2019-05-12T12:05:38.248Z,45.10
2019-05-12T12:08:06.332Z,40.30
2019-05-12T12:10:39.571Z,38.40
2019-05-12T12:13:04.979Z,37.60
2019-05-12T12:15:34.513Z,35.00
2019-05-12T12:18:12.704Z,33.70
2019-05-12T12:20:33.919Z,33.60
2019-05-12T12:23:08.004Z,29.40
2019-05-12T12:25:35.162Z,29.30
2019-05-12T12:28:04.509Z,28.20
2019-05-12T12:30:33.883Z,28.70
2019-05-12T12:33:04.143Z,28.50
2019-05-12T12:35:34.325Z,26.90
2019-05-12T12:38:03.768Z,26.70
2019-05-12T12:40:32.580Z,25.70
2019-05-12T12:43:03.439Z,25.80
2019-05-12T12:45:43.459Z,24.60
2019-05-12T12:48:13.723Z,24.80
2019-05-12T12:50:44.411Z,24.10
2019-05-12T12:53:13.031Z,24.30
2019-05-12T12:55:43.720Z,24.10
2019-05-12T12:58:13.962Z,24.50
2019-05-12T13:00:47.223Z,25.40
2019-05-12T13:03:14.335Z,25.30
2019-05-12T13:05:43.893Z,24.70
2019-05-12T13:08:12.541Z,23.60
2019-05-12T13:10:47.217Z,23.90
2019-05-12T13:13:14.043Z,23.80
2019-05-12T13:15:41.775Z,23.60
2019-05-12T13:18:17.942Z,24.30
2019-05-12T13:20:40.886Z,24.30
2019-05-12T13:23:09.419Z,24.70
2019-05-12T13:25:38.853Z,25.40
2019-05-12T13:28:12.399Z,25.60
2019-05-12T13:30:46.411Z,25.80
2019-05-12T13:33:13.456Z,25.60
2019-05-12T13:35:39.123Z,27.30
2019-05-12T13:38:08.011Z,28.30
2019-05-12T13:40:39.299Z,28.60
2019-05-12T13:43:09.146Z,29.00
2019-05-12T13:45:37.382Z,29.70
2019-05-12T13:48:09.489Z,28.60
2019-05-12T13:50:37.313Z,29.00
2019-05-12T13:53:10.024Z,29.00
2019-05-12T13:55:39.259Z,30.00
2019-05-12T13:58:06.369Z,30.60
2019-05-12T14:00:34.994Z,32.50
2019-05-12T14:03:09.542Z,33.30
2019-05-12T14:05:34.551Z,33.70
2019-05-12T14:08:03.920Z,34.30
2019-05-12T14:10:36.981Z,33.90
2019-05-12T14:13:03.505Z,33.30
2019-05-12T14:15:34.106Z,33.50
2019-05-12T14:18:03.441Z,32.30
2019-05-12T14:20:34.480Z,33.50
2019-05-12T14:23:03.948Z,34.40
2019-05-12T14:25:34.985Z,34.60
2019-05-12T14:28:05.445Z,35.00
2019-05-12T14:30:33.677Z,35.60
2019-05-12T14:33:03.411Z,34.20
2019-05-12T14:35:40.477Z,35.00
2019-05-12T14:38:03.866Z,34.00
2019-05-12T14:40:34.871Z,34.40
2019-05-12T14:43:03.797Z,35.10
2019-05-12T14:45:33.247Z,34.70
2019-05-12T14:48:05.701Z,34.50
2019-05-12T14:50:33.643Z,36.50
2019-05-12T14:53:03.529Z,35.40
2019-05-12T14:55:33.688Z,34.70
2019-05-12T14:58:03.592Z,34.30
2019-05-12T15:00:34.225Z,33.90
2019-05-12T15:03:05.553Z,35.30
2019-05-12T15:05:33.304Z,35.40
2019-05-12T15:08:04.299Z,34.30
2019-05-12T15:10:33.820Z,34.90
2019-05-12T15:13:03.483Z,33.90
2019-05-12T15:15:33.573Z,35.00
2019-05-12T15:18:04.700Z,35.80
2019-05-12T15:20:33.119Z,34.60
2019-05-12T15:23:03.766Z,34.00
2019-05-12T15:25:35.524Z,34.30
2019-05-12T15:28:03.908Z,34.60
2019-05-12T15:30:33.739Z,36.00
2019-05-12T15:33:04.543Z,36.20
2019-05-12T15:35:34.437Z,35.70
2019-05-12T15:38:03.688Z,35.90
2019-05-12T15:40:32.598Z,35.10
2019-05-12T15:43:05.196Z,35.80
2019-05-12T15:45:31.319Z,36.30
2019-05-12T15:47:59.777Z,35.00
2019-05-12T15:50:28.600Z,35.10
2019-05-12T15:52:57.055Z,35.30
2019-05-12T15:55:32.998Z,36.40
2019-05-12T15:57:55.779Z,36.80
2019-05-12T16:00:24.787Z,38.40
2019-05-12T16:02:53.494Z,37.30
2019-05-12T16:05:26.421Z,37.00
2019-05-12T16:07:54.074Z,38.20
2019-05-12T16:10:23.620Z,37.50
2019-05-12T16:12:52.379Z,37.60
2019-05-12T16:15:21.302Z,37.30
2019-05-12T16:17:49.888Z,38.10
2019-05-12T16:20:18.489Z,37.30
2019-05-12T16:22:47.364Z,37.30
2019-05-12T16:25:20.845Z,37.30
2019-05-12T16:27:47.387Z,38.10
2019-05-12T16:30:20.178Z,38.00
2019-05-12T16:32:47.844Z,37.20
2019-05-12T16:35:20.119Z,38.20
2019-05-12T16:37:47.074Z,37.50
2019-05-12T16:40:16.163Z,38.60
2019-05-12T16:42:52.675Z,37.50
2019-05-12T16:45:15.204Z,38.20
2019-05-12T16:47:44.710Z,38.00
2019-05-12T16:50:16.023Z,38.10
2019-05-12T16:52:45.462Z,38.40
2019-05-12T16:55:14.440Z,38.60
2019-05-12T16:57:51.654Z,39.00
2019-05-12T17:00:14.733Z,38.90
2019-05-12T17:02:52.043Z,38.10
2019-05-12T17:05:19.809Z,38.40
2019-05-12T17:07:44.473Z,39.00
2019-05-12T17:10:16.485Z,40.20
2019-05-12T17:12:44.126Z,39.70
2019-05-12T17:15:14.879Z,40.80
2019-05-12T17:17:44.821Z,40.30
2019-05-12T17:20:14.455Z,39.30
2019-05-12T17:22:45.791Z,40.70
2019-05-12T17:25:15.488Z,41.10
2019-05-12T17:27:44.832Z,41.30
2019-05-12T17:30:14.837Z,41.90
2019-05-12T17:32:57.475Z,40.60
2019-05-12T17:35:15.079Z,40.60
2019-05-12T17:37:44.971Z,41.60
2019-05-12T17:40:19.890Z,41.30
2019-05-12T17:42:44.561Z,41.40
2019-05-12T17:45:20.436Z,41.40
2019-05-12T17:47:44.782Z,42.40
2019-05-12T17:50:13.986Z,41.50
2019-05-12T17:52:45.041Z,42.30
2019-05-12T17:55:14.706Z,42.50
2019-05-12T17:57:44.106Z,42.00
2019-05-12T18:00:14.593Z,42.70
2019-05-12T18:02:43.928Z,43.10
2019-05-12T18:05:15.507Z,43.00
2019-05-12T18:07:44.855Z,43.30
2019-05-12T18:10:14.063Z,43.20
2019-05-12T18:12:45.139Z,43.00
2019-05-12T18:15:15.015Z,43.00
2019-05-12T18:17:47.399Z,43.20
2019-05-12T18:20:14.589Z,42.80
2019-05-12T18:22:44.945Z,42.80
2019-05-12T18:25:14.885Z,44.10
2019-05-12T18:27:50.140Z,43.60
2019-05-12T18:30:18.899Z,44.10
2019-05-12T18:32:45.169Z,44.70
2019-05-12T18:35:14.043Z,45.00
2019-05-12T18:37:42.679Z,44.50
2019-05-12T18:40:14.587Z,44.40
2019-05-12T18:42:42.531Z,45.20
2019-05-12T18:45:12.541Z,45.80
2019-05-12T18:47:43.723Z,46.00
2019-05-12T18:50:14.039Z,46.00
2019-05-12T18:52:45.464Z,45.80
2019-05-12T18:55:12.595Z,46.30
2019-05-12T18:57:46.201Z,46.50
2019-05-12T19:00:18.315Z,46.60
2019-05-12T19:02:47.064Z,47.20
2019-05-12T19:05:21.925Z,46.80
2019-05-12T19:07:46.090Z,47.30
2019-05-12T19:10:15.348Z,47.00
2019-05-12T19:12:44.165Z,47.30
2019-05-12T19:15:17.316Z,47.30
2019-05-12T19:17:45.610Z,47.60
2019-05-12T19:20:14.221Z,47.60
2019-05-12T19:22:48.295Z,47.80
2019-05-12T19:25:19.362Z,48.20
2019-05-12T19:27:50.097Z,48.90
2019-05-12T19:30:19.229Z,48.70
2019-05-12T19:32:47.891Z,48.90
2019-05-12T19:35:20.256Z,49.10
2019-05-12T19:37:46.611Z,49.70
2019-05-12T19:40:17.566Z,50.00
2019-05-12T19:42:45.666Z,50.00
2019-05-12T19:45:21.439Z,50.50
2019-05-12T19:47:45.218Z,50.60
2019-05-12T19:50:18.169Z,50.70
2019-05-12T19:52:44.734Z,50.70
2019-05-12T19:55:14.224Z,51.10
2019-05-12T19:57:44.092Z,51.70
2019-05-12T20:00:14.119Z,52.20
2019-05-12T20:02:42.834Z,52.60
2019-05-12T20:05:17.172Z,52.40
2019-05-12T20:07:44.634Z,52.90
2019-05-12T20:10:16.476Z,53.30
2019-05-12T20:12:48.834Z,53.70
2019-05-12T20:15:15.199Z,54.00
2019-05-12T20:17:44.743Z,54.60
2019-05-12T20:20:17.295Z,54.90
2019-05-12T20:22:44.504Z,55.90
2019-05-12T20:25:14.527Z,55.90
2019-05-12T20:27:44.604Z,56.40
2019-05-12T20:30:20.415Z,57.90
2019-05-12T20:32:45.059Z,58.70
2019-05-12T20:35:14.666Z,59.90
2019-05-12T20:37:52.415Z,62.40
2019-05-12T20:40:14.636Z,65.00
2019-05-12T20:43:04.827Z,67.10
2019-05-12T20:45:13.860Z,70.40
2019-05-12T20:47:44.820Z,72.90
2019-05-12T20:50:15.007Z,77.70
2019-05-12T20:52:46.246Z,79.90
2019-05-12T20:55:14.617Z,85.60
2019-05-12T20:57:50.311Z,90.00
2019-05-12T21:00:14.331Z,92.30
2019-05-12T21:02:44.240Z,93.90
2019-05-12T21:05:16.508Z,95.30
2019-05-12T21:07:43.695Z,97.50
2019-05-12T21:10:14.791Z,98.00
2019-05-12T21:12:46.496Z,99.90
2019-05-12T21:15:19.893Z,99.90
2019-05-12T21:17:46.883Z,99.90
2019-05-12T21:20:16.579Z,99.90
2019-05-12T21:22:44.634Z,99.90
2019-05-12T21:25:13.999Z,99.90
2019-05-12T21:27:46.887Z,99.90
2019-05-12T21:30:15.276Z,99.90
2019-05-12T21:32:47.107Z,99.90
2019-05-12T21:35:19.336Z,99.90
2019-05-12T21:37:45.950Z,99.90
2019-05-12T21:40:14.960Z,99.90
2019-05-12T21:42:44.723Z,99.90
2019-05-12T21:45:14.577Z,99.90
2019-05-12T21:47:44.400Z,99.90
2019-05-12T21:50:14.253Z,99.90
2019-05-12T21:52:44.702Z,99.90
2019-05-12T21:55:21.823Z,99.90
2019-05-12T21:57:44.063Z,99.90
2019-05-12T22:00:25.603Z,99.90
2019-05-12T22:02:56.440Z,99.90
2019-05-12T22:05:47.070Z,99.90
2019-05-12T22:07:55.027Z,99.90
2019-05-12T22:10:26.784Z,99.90
2019-05-12T22:12:53.743Z,99.90
2019-05-12T22:15:24.602Z,99.90
2019-05-12T22:18:00.292Z,99.90
2019-05-12T22:20:30.324Z,99.90
2019-05-12T22:23:11.611Z,99.90
2019-05-12T22:25:35.665Z,99.90
2019-05-12T22:28:09.888Z,99.90
2019-05-12T22:30:35.203Z,99.90
2019-05-12T22:33:09.211Z,99.90
2019-05-12T22:35:34.267Z,99.90
2019-05-12T22:38:09.391Z,99.90
2019-05-12T22:40:33.168Z,99.90
2019-05-12T22:43:04.455Z,99.90
2019-05-12T22:45:36.096Z,99.90
2019-05-12T22:48:04.229Z,99.90
2019-05-12T22:50:35.981Z,99.90
2019-05-12T22:53:05.655Z,99.90
2019-05-12T22:55:35.929Z,99.90
2019-05-12T22:58:04.728Z,99.90
2019-05-12T23:00:34.265Z,99.90
2019-05-12T23:03:07.149Z,99.90
2019-05-12T23:05:33.362Z,99.90
2019-05-12T23:08:05.951Z,99.90
2019-05-12T23:10:32.098Z,99.90
2019-05-12T23:13:02.014Z,99.90
2019-05-12T23:15:33.272Z,99.90
2019-05-12T23:18:04.036Z,99.90
2019-05-12T23:20:33.396Z,99.90
2019-05-12T23:23:03.954Z,99.90
2019-05-12T23:25:33.648Z,99.90
2019-05-12T23:28:08.327Z,99.90
2019-05-12T23:30:32.998Z,99.90
2019-05-12T23:33:03.509Z,99.90
2019-05-12T23:35:37.730Z,99.90
2019-05-12T23:38:04.197Z,99.90
2019-05-12T23:40:34.272Z,99.90
2019-05-12T23:43:04.071Z,99.90
2019-05-12T23:45:34.012Z,99.90
2019-05-12T23:48:03.761Z,99.90
2019-05-12T23:50:32.774Z,99.90
2019-05-12T23:53:03.535Z,99.90
2019-05-12T23:55:34.704Z,99.90
2019-05-12T23:58:04.299Z,99.90
